sensor_id;sensor_type;location;lat;lon;timestamp;P1;durP1;ratioP1;P2;durP2;ratioP2
48987;SDS011;34799;51.440;-2.534;2023-03-31T00:00:44;9.75;;;1.20;;
48987;SDS011;34799;51.440;-2.534;2023-03-31T00:03:15;12.20;;;0.70;;
48987;SDS011;34799;51.440;-2.534;2023-03-31T00:05:47;7.72;;;0.70;;
48987;SDS011;34799;51.440;-2.534;2023-03-31T00:08:14;8.77;;;0.73;;
48987;SDS011;34799;51.440;-2.534;2023-03-31T00:10:45;8.98;;;1.00;;
48987;SDS011;34799;51.440;-2.534;2023-03-31T00:13:15;10.40;;;0.88;;
48987;SDS011;34799;51.440;-2.534;2023-03-31T00:15:42;7.60;;;0.47;;
48987;SDS011;34799;51.440;-2.534;2023-03-31T00:18:09;7.10;;;0.45;;
48987;SDS011;34799;51.440;-2.534;2023-03-31T00:20:38;6.47;;;0.65;;
48987;SDS011;34799;51.440;-2.534;2023-03-31T00:23:08;7.00;;;0.40;;
48987;SDS011;34799;51.440;-2.534;2023-03-31T00:25:39;7.38;;;0.80;;
48987;SDS011;34799;51.440;-2.534;2023-03-31T00:28:07;9.80;;;1.00;;
48987;SDS011;34799;51.440;-2.534;2023-03-31T00:30:34;10.40;;;1.02;;
48987;SDS011;34799;51.440;-2.534;2023-03-31T00:33:01;19.48;;;1.63;;
48987;SDS011;34799;51.440;-2.534;2023-03-31T00:35:28;19.80;;;1.63;;
48987;SDS011;34799;51.440;-2.534;2023-03-31T00:37:56;20.05;;;2.08;;
48987;SDS011;34799;51.440;-2.534;2023-03-31T00:40:24;28.60;;;3.17;;
48987;SDS011;34799;51.440;-2.534;2023-03-31T00:42:51;21.73;;;2.42;;
48987;SDS011;34799;51.440;-2.534;2023-03-31T00:45:21;21.75;;;2.80;;
48987;SDS011;34799;51.440;-2.534;2023-03-31T00:47:54;24.35;;;1.95;;
48987;SDS011;34799;51.440;-2.534;2023-03-31T00:50:39;20.88;;;2.20;;
48987;SDS011;34799;51.440;-2.534;2023-03-31T00:53:29;19.80;;;2.00;;
48987;SDS011;34799;51.440;-2.534;2023-03-31T00:56:01;27.48;;;3.95;;
48987;SDS011;34799;51.440;-2.534;2023-03-31T00:58:34;19.88;;;2.35;;
48987;SDS011;34799;51.440;-2.534;2023-03-31T01:01:09;21.35;;;2.53;;
48987;SDS011;34799;51.440;-2.534;2023-03-31T01:03:42;16.73;;;2.55;;
48987;SDS011;34799;51.440;-2.534;2023-03-31T01:06:12;20.30;;;2.72;;
48987;SDS011;34799;51.440;-2.534;2023-03-31T01:08:43;25.42;;;2.40;;
48987;SDS011;34799;51.440;-2.534;2023-03-31T01:11:16;20.80;;;2.60;;
48987;SDS011;34799;51.440;-2.534;2023-03-31T01:13:46;23.33;;;2.38;;
48987;SDS011;34799;51.440;-2.534;2023-03-31T01:16:17;14.77;;;2.05;;
48987;SDS011;34799;51.440;-2.534;2023-03-31T01:18:44;20.00;;;3.13;;
48987;SDS011;34799;51.440;-2.534;2023-03-31T01:41:19;24.45;;;2.33;;
48987;SDS011;34799;51.440;-2.534;2023-03-31T01:47:06;18.23;;;3.03;;
48987;SDS011;34799;51.440;-2.534;2023-03-31T01:49:45;28.00;;;3.05;;
48987;SDS011;34799;51.440;-2.534;2023-03-31T01:52:24;23.77;;;3.95;;
48987;SDS011;34799;51.440;-2.534;2023-03-31T01:55:03;25.75;;;2.45;;
48987;SDS011;34799;51.440;-2.534;2023-03-31T02:00:13;24.17;;;2.60;;
48987;SDS011;34799;51.440;-2.534;2023-03-31T02:02:58;24.30;;;3.33;;
48987;SDS011;34799;51.440;-2.534;2023-03-31T02:05:39;24.92;;;2.90;;
48987;SDS011;34799;51.440;-2.534;2023-03-31T02:08:51;26.77;;;3.97;;
48987;SDS011;34799;51.440;-2.534;2023-03-31T02:11:13;17.58;;;2.85;;
48987;SDS011;34799;51.440;-2.534;2023-03-31T02:13:41;27.00;;;3.03;;
48987;SDS011;34799;51.440;-2.534;2023-03-31T02:16:15;24.42;;;2.92;;
48987;SDS011;34799;51.440;-2.534;2023-03-31T02:18:48;24.38;;;3.83;;
48987;SDS011;34799;51.440;-2.534;2023-03-31T02:21:19;20.10;;;2.83;;
48987;SDS011;34799;51.440;-2.534;2023-03-31T02:23:49;21.70;;;2.08;;
48987;SDS011;34799;51.440;-2.534;2023-03-31T02:26:22;23.33;;;2.78;;
48987;SDS011;34799;51.440;-2.534;2023-03-31T02:28:55;18.55;;;2.25;;
48987;SDS011;34799;51.440;-2.534;2023-03-31T02:31:34;13.90;;;1.75;;
48987;SDS011;34799;51.440;-2.534;2023-03-31T02:34:11;23.30;;;2.53;;
48987;SDS011;34799;51.440;-2.534;2023-03-31T02:36:40;15.68;;;1.63;;
48987;SDS011;34799;51.440;-2.534;2023-03-31T02:39:11;16.75;;;1.77;;
48987;SDS011;34799;51.440;-2.534;2023-03-31T02:41:50;14.52;;;1.95;;
48987;SDS011;34799;51.440;-2.534;2023-03-31T02:44:18;14.65;;;1.98;;
48987;SDS011;34799;51.440;-2.534;2023-03-31T02:46:47;9.20;;;1.25;;
48987;SDS011;34799;51.440;-2.534;2023-03-31T02:49:15;11.75;;;1.13;;
48987;SDS011;34799;51.440;-2.534;2023-03-31T02:51:54;13.38;;;0.90;;
48987;SDS011;34799;51.440;-2.534;2023-03-31T02:54:39;8.95;;;0.98;;
48987;SDS011;34799;51.440;-2.534;2023-03-31T03:13:44;6.10;;;0.80;;
48987;SDS011;34799;51.440;-2.534;2023-03-31T03:16:21;8.07;;;0.90;;
48987;SDS011;34799;51.440;-2.534;2023-03-31T03:21:24;8.07;;;1.10;;
48987;SDS011;34799;51.440;-2.534;2023-03-31T03:23:52;11.95;;;0.65;;
48987;SDS011;34799;51.440;-2.534;2023-03-31T03:26:21;6.72;;;0.70;;
48987;SDS011;34799;51.440;-2.534;2023-03-31T03:28:54;16.73;;;2.15;;
48987;SDS011;34799;51.440;-2.534;2023-03-31T03:31:23;9.25;;;1.30;;
48987;SDS011;34799;51.440;-2.534;2023-03-31T03:33:51;13.40;;;2.25;;
48987;SDS011;34799;51.440;-2.534;2023-03-31T03:36:19;11.88;;;0.90;;
48987;SDS011;34799;51.440;-2.534;2023-03-31T03:38:46;15.15;;;1.67;;
48987;SDS011;34799;51.440;-2.534;2023-03-31T03:41:14;9.38;;;1.00;;
48987;SDS011;34799;51.440;-2.534;2023-03-31T03:43:42;14.38;;;1.67;;
48987;SDS011;34799;51.440;-2.534;2023-03-31T03:46:09;13.07;;;1.30;;
48987;SDS011;34799;51.440;-2.534;2023-03-31T03:48:36;12.77;;;1.92;;
48987;SDS011;34799;51.440;-2.534;2023-03-31T03:51:03;27.15;;;2.95;;
48987;SDS011;34799;51.440;-2.534;2023-03-31T03:53:30;14.43;;;1.70;;
48987;SDS011;34799;51.440;-2.534;2023-03-31T03:56:00;16.92;;;1.67;;
48987;SDS011;34799;51.440;-2.534;2023-03-31T03:58:28;16.50;;;1.95;;
48987;SDS011;34799;51.440;-2.534;2023-03-31T04:00:55;17.23;;;1.65;;
48987;SDS011;34799;51.440;-2.534;2023-03-31T04:03:25;24.95;;;3.05;;
48987;SDS011;34799;51.440;-2.534;2023-03-31T04:05:53;16.52;;;2.47;;
48987;SDS011;34799;51.440;-2.534;2023-03-31T04:08:20;13.85;;;1.58;;
48987;SDS011;34799;51.440;-2.534;2023-03-31T04:10:47;18.73;;;1.55;;
48987;SDS011;34799;51.440;-2.534;2023-03-31T04:13:15;9.93;;;1.15;;
48987;SDS011;34799;51.440;-2.534;2023-03-31T04:15:43;16.95;;;2.05;;
48987;SDS011;34799;51.440;-2.534;2023-03-31T04:18:12;17.45;;;1.88;;
48987;SDS011;34799;51.440;-2.534;2023-03-31T04:20:52;15.60;;;1.98;;
48987;SDS011;34799;51.440;-2.534;2023-03-31T04:23:32;19.05;;;2.55;;
48987;SDS011;34799;51.440;-2.534;2023-03-31T04:26:03;17.35;;;2.13;;
48987;SDS011;34799;51.440;-2.534;2023-03-31T04:28:34;15.30;;;1.98;;
48987;SDS011;34799;51.440;-2.534;2023-03-31T04:31:02;12.77;;;1.92;;
48987;SDS011;34799;51.440;-2.534;2023-03-31T04:33:31;14.27;;;1.08;;
48987;SDS011;34799;51.440;-2.534;2023-03-31T04:36:04;12.15;;;1.30;;
48987;SDS011;34799;51.440;-2.534;2023-03-31T04:38:44;15.02;;;1.40;;
48987;SDS011;34799;51.440;-2.534;2023-03-31T04:41:13;17.77;;;1.08;;
48987;SDS011;34799;51.440;-2.534;2023-03-31T04:43:40;11.88;;;2.28;;
48987;SDS011;34799;51.440;-2.534;2023-03-31T04:46:07;6.50;;;1.10;;
48987;SDS011;34799;51.440;-2.534;2023-03-31T04:48:35;12.40;;;1.23;;
48987;SDS011;34799;51.440;-2.534;2023-03-31T04:51:03;11.07;;;0.70;;
48987;SDS011;34799;51.440;-2.534;2023-03-31T04:53:31;11.65;;;0.82;;
48987;SDS011;34799;51.440;-2.534;2023-03-31T04:55:59;12.35;;;0.60;;
48987;SDS011;34799;51.440;-2.534;2023-03-31T04:58:26;9.13;;;1.17;;
48987;SDS011;34799;51.440;-2.534;2023-03-31T05:00:53;5.93;;;0.70;;
48987;SDS011;34799;51.440;-2.534;2023-03-31T05:03:20;6.80;;;0.80;;
48987;SDS011;34799;51.440;-2.534;2023-03-31T05:05:48;12.90;;;2.20;;
48987;SDS011;34799;51.440;-2.534;2023-03-31T05:08:15;9.07;;;1.15;;
48987;SDS011;34799;51.440;-2.534;2023-03-31T05:10:43;6.57;;;0.80;;
48987;SDS011;34799;51.440;-2.534;2023-03-31T05:13:10;6.50;;;0.75;;
48987;SDS011;34799;51.440;-2.534;2023-03-31T05:15:37;8.60;;;0.60;;
48987;SDS011;34799;51.440;-2.534;2023-03-31T05:18:05;8.88;;;1.40;;
48987;SDS011;34799;51.440;-2.534;2023-03-31T05:20:34;8.27;;;0.90;;
48987;SDS011;34799;51.440;-2.534;2023-03-31T05:23:01;7.68;;;0.93;;
48987;SDS011;34799;51.440;-2.534;2023-03-31T05:25:28;7.32;;;0.82;;
48987;SDS011;34799;51.440;-2.534;2023-03-31T05:27:59;6.25;;;0.70;;
48987;SDS011;34799;51.440;-2.534;2023-03-31T05:30:28;7.60;;;1.48;;
48987;SDS011;34799;51.440;-2.534;2023-03-31T05:32:55;8.50;;;1.05;;
48987;SDS011;34799;51.440;-2.534;2023-03-31T05:35:22;6.15;;;1.10;;
48987;SDS011;34799;51.440;-2.534;2023-03-31T05:37:50;8.75;;;0.70;;
48987;SDS011;34799;51.440;-2.534;2023-03-31T05:40:17;8.45;;;0.95;;
48987;SDS011;34799;51.440;-2.534;2023-03-31T05:42:45;7.55;;;0.95;;
48987;SDS011;34799;51.440;-2.534;2023-03-31T05:45:13;6.32;;;0.82;;
48987;SDS011;34799;51.440;-2.534;2023-03-31T05:47:40;10.00;;;2.25;;
48987;SDS011;34799;51.440;-2.534;2023-03-31T05:50:07;6.50;;;1.13;;
48987;SDS011;34799;51.440;-2.534;2023-03-31T05:52:35;11.13;;;1.33;;
48987;SDS011;34799;51.440;-2.534;2023-03-31T05:55:02;6.13;;;0.60;;
48987;SDS011;34799;51.440;-2.534;2023-03-31T05:57:31;6.63;;;0.60;;
48987;SDS011;34799;51.440;-2.534;2023-03-31T05:59:58;5.55;;;0.70;;
48987;SDS011;34799;51.440;-2.534;2023-03-31T06:02:26;5.40;;;0.50;;
48987;SDS011;34799;51.440;-2.534;2023-03-31T06:04:53;7.63;;;0.68;;
48987;SDS011;34799;51.440;-2.534;2023-03-31T06:07:20;5.38;;;0.43;;
48987;SDS011;34799;51.440;-2.534;2023-03-31T06:09:51;3.17;;;0.30;;
48987;SDS011;34799;51.440;-2.534;2023-03-31T06:12:18;4.53;;;0.73;;
48987;SDS011;34799;51.440;-2.534;2023-03-31T06:14:45;3.85;;;0.30;;
48987;SDS011;34799;51.440;-2.534;2023-03-31T06:17:12;3.47;;;0.30;;
48987;SDS011;34799;51.440;-2.534;2023-03-31T06:19:39;4.30;;;0.30;;
48987;SDS011;34799;51.440;-2.534;2023-03-31T06:22:06;5.68;;;0.30;;
48987;SDS011;34799;51.440;-2.534;2023-03-31T06:24:33;4.20;;;0.30;;
48987;SDS011;34799;51.440;-2.534;2023-03-31T06:27:02;7.85;;;0.30;;
48987;SDS011;34799;51.440;-2.534;2023-03-31T06:29:29;3.58;;;0.20;;
48987;SDS011;34799;51.440;-2.534;2023-03-31T06:31:56;2.15;;;0.30;;
48987;SDS011;34799;51.440;-2.534;2023-03-31T06:34:24;4.97;;;0.52;;
48987;SDS011;34799;51.440;-2.534;2023-03-31T06:36:51;5.55;;;0.30;;
48987;SDS011;34799;51.440;-2.534;2023-03-31T06:39:18;7.90;;;1.30;;
48987;SDS011;34799;51.440;-2.534;2023-03-31T06:41:47;4.40;;;0.63;;
48987;SDS011;34799;51.440;-2.534;2023-03-31T06:44:23;6.75;;;0.68;;
48987;SDS011;34799;51.440;-2.534;2023-03-31T06:46:50;3.63;;;0.30;;
48987;SDS011;34799;51.440;-2.534;2023-03-31T06:49:17;7.35;;;0.82;;
48987;SDS011;34799;51.440;-2.534;2023-03-31T06:51:44;7.05;;;0.50;;
48987;SDS011;34799;51.440;-2.534;2023-03-31T06:54:11;6.13;;;0.88;;
48987;SDS011;34799;51.440;-2.534;2023-03-31T06:56:39;5.90;;;0.60;;
48987;SDS011;34799;51.440;-2.534;2023-03-31T06:59:08;6.57;;;0.60;;
48987;SDS011;34799;51.440;-2.534;2023-03-31T07:01:35;5.57;;;1.10;;
48987;SDS011;34799;51.440;-2.534;2023-03-31T07:04:04;6.22;;;0.70;;
48987;SDS011;34799;51.440;-2.534;2023-03-31T07:06:31;6.70;;;1.05;;
48987;SDS011;34799;51.440;-2.534;2023-03-31T07:08:58;6.53;;;0.43;;
48987;SDS011;34799;51.440;-2.534;2023-03-31T07:11:26;6.38;;;0.70;;
48987;SDS011;34799;51.440;-2.534;2023-03-31T07:13:54;11.52;;;1.33;;
48987;SDS011;34799;51.440;-2.534;2023-03-31T07:16:21;4.43;;;1.23;;
48987;SDS011;34799;51.440;-2.534;2023-03-31T07:18:49;8.90;;;0.68;;
48987;SDS011;34799;51.440;-2.534;2023-03-31T07:21:20;6.50;;;0.63;;
48987;SDS011;34799;51.440;-2.534;2023-03-31T07:23:47;7.68;;;1.60;;
48987;SDS011;34799;51.440;-2.534;2023-03-31T07:26:14;9.40;;;0.70;;
48987;SDS011;34799;51.440;-2.534;2023-03-31T07:28:41;16.63;;;2.40;;
48987;SDS011;34799;51.440;-2.534;2023-03-31T07:31:12;10.77;;;1.52;;
48987;SDS011;34799;51.440;-2.534;2023-03-31T07:33:40;10.18;;;0.90;;
48987;SDS011;34799;51.440;-2.534;2023-03-31T07:36:07;12.68;;;1.90;;
48987;SDS011;34799;51.440;-2.534;2023-03-31T07:38:38;6.82;;;1.48;;
48987;SDS011;34799;51.440;-2.534;2023-03-31T07:41:13;5.00;;;0.93;;
48987;SDS011;34799;51.440;-2.534;2023-03-31T07:43:43;8.25;;;1.05;;
48987;SDS011;34799;51.440;-2.534;2023-03-31T07:46:18;13.55;;;0.60;;
48987;SDS011;34799;51.440;-2.534;2023-03-31T07:48:52;8.98;;;0.93;;
48987;SDS011;34799;51.440;-2.534;2023-03-31T07:51:21;7.95;;;1.58;;
48987;SDS011;34799;51.440;-2.534;2023-03-31T07:53:51;9.45;;;1.38;;
48987;SDS011;34799;51.440;-2.534;2023-03-31T07:56:19;6.80;;;1.10;;
48987;SDS011;34799;51.440;-2.534;2023-03-31T07:58:48;7.10;;;1.00;;
48987;SDS011;34799;51.440;-2.534;2023-03-31T08:01:17;9.60;;;0.70;;
48987;SDS011;34799;51.440;-2.534;2023-03-31T08:03:47;8.65;;;1.23;;
48987;SDS011;34799;51.440;-2.534;2023-03-31T08:06:17;6.97;;;0.95;;
48987;SDS011;34799;51.440;-2.534;2023-03-31T08:08:50;5.47;;;0.90;;
48987;SDS011;34799;51.440;-2.534;2023-03-31T08:11:17;12.20;;;2.67;;
48987;SDS011;34799;51.440;-2.534;2023-03-31T08:13:47;4.18;;;1.02;;
48987;SDS011;34799;51.440;-2.534;2023-03-31T08:16:16;14.77;;;2.33;;
48987;SDS011;34799;51.440;-2.534;2023-03-31T08:18:43;12.07;;;1.50;;
48987;SDS011;34799;51.440;-2.534;2023-03-31T08:21:10;7.55;;;1.40;;
48987;SDS011;34799;51.440;-2.534;2023-03-31T08:23:37;10.85;;;1.23;;
48987;SDS011;34799;51.440;-2.534;2023-03-31T08:26:11;9.00;;;1.88;;
48987;SDS011;34799;51.440;-2.534;2023-03-31T08:28:44;8.68;;;1.45;;
48987;SDS011;34799;51.440;-2.534;2023-03-31T08:31:13;11.68;;;1.65;;
48987;SDS011;34799;51.440;-2.534;2023-03-31T08:33:41;9.45;;;2.22;;
48987;SDS011;34799;51.440;-2.534;2023-03-31T08:36:10;5.70;;;1.30;;
48987;SDS011;34799;51.440;-2.534;2023-03-31T08:38:38;8.95;;;1.40;;
48987;SDS011;34799;51.440;-2.534;2023-03-31T08:41:12;11.18;;;2.03;;
48987;SDS011;34799;51.440;-2.534;2023-03-31T08:43:59;5.93;;;1.20;;
48987;SDS011;34799;51.440;-2.534;2023-03-31T08:46:31;10.10;;;1.60;;
48987;SDS011;34799;51.440;-2.534;2023-03-31T08:49:01;9.27;;;2.50;;
48987;SDS011;34799;51.440;-2.534;2023-03-31T08:51:36;9.40;;;1.67;;
48987;SDS011;34799;51.440;-2.534;2023-03-31T08:56:43;8.95;;;1.75;;
48987;SDS011;34799;51.440;-2.534;2023-03-31T08:59:20;7.90;;;1.67;;
48987;SDS011;34799;51.440;-2.534;2023-03-31T09:18:30;10.00;;;3.03;;
48987;SDS011;34799;51.440;-2.534;2023-03-31T09:21:13;8.20;;;2.70;;
48987;SDS011;34799;51.440;-2.534;2023-03-31T09:23:56;15.90;;;2.78;;
48987;SDS011;34799;51.440;-2.534;2023-03-31T09:26:40;5.57;;;1.98;;
48987;SDS011;34799;51.440;-2.534;2023-03-31T09:29:23;8.38;;;2.33;;
48987;SDS011;34799;51.440;-2.534;2023-03-31T09:34:49;6.80;;;1.80;;
48987;SDS011;34799;51.440;-2.534;2023-03-31T09:37:19;7.00;;;2.10;;
48987;SDS011;34799;51.440;-2.534;2023-03-31T09:39:46;9.48;;;2.30;;
48987;SDS011;34799;51.440;-2.534;2023-03-31T09:42:13;10.57;;;1.92;;
48987;SDS011;34799;51.440;-2.534;2023-03-31T09:44:44;6.75;;;1.45;;
48987;SDS011;34799;51.440;-2.534;2023-03-31T09:47:16;6.70;;;1.45;;
48987;SDS011;34799;51.440;-2.534;2023-03-31T09:49:50;6.30;;;1.53;;
48987;SDS011;34799;51.440;-2.534;2023-03-31T09:54:52;5.93;;;1.30;;
48987;SDS011;34799;51.440;-2.534;2023-03-31T09:57:34;4.68;;;1.05;;
48987;SDS011;34799;51.440;-2.534;2023-03-31T10:00:15;4.78;;;0.90;;
48987;SDS011;34799;51.440;-2.534;2023-03-31T10:05:34;5.40;;;1.25;;
48987;SDS011;34799;51.440;-2.534;2023-03-31T10:10:53;4.90;;;0.70;;
48987;SDS011;34799;51.440;-2.534;2023-03-31T10:13:22;3.17;;;0.40;;
48987;SDS011;34799;51.440;-2.534;2023-03-31T10:16:06;4.15;;;0.52;;
48987;SDS011;34799;51.440;-2.534;2023-03-31T10:18:41;4.78;;;0.75;;
48987;SDS011;34799;51.440;-2.534;2023-03-31T10:21:20;2.53;;;0.40;;
48987;SDS011;34799;51.440;-2.534;2023-03-31T10:23:53;3.63;;;0.40;;
48987;SDS011;34799;51.440;-2.534;2023-03-31T10:26:23;4.65;;;0.65;;
48987;SDS011;34799;51.440;-2.534;2023-03-31T10:28:53;2.63;;;0.40;;
48987;SDS011;34799;51.440;-2.534;2023-03-31T10:31:23;4.20;;;0.65;;
48987;SDS011;34799;51.440;-2.534;2023-03-31T10:33:53;5.70;;;1.00;;
48987;SDS011;34799;51.440;-2.534;2023-03-31T10:36:22;5.28;;;0.90;;
48987;SDS011;34799;51.440;-2.534;2023-03-31T10:38:52;3.47;;;0.50;;
48987;SDS011;34799;51.440;-2.534;2023-03-31T10:41:26;4.57;;;0.65;;
48987;SDS011;34799;51.440;-2.534;2023-03-31T10:43:57;5.68;;;1.02;;
48987;SDS011;34799;51.440;-2.534;2023-03-31T10:51:53;6.45;;;1.77;;
48987;SDS011;34799;51.440;-2.534;2023-03-31T10:54:23;6.10;;;1.38;;
48987;SDS011;34799;51.440;-2.534;2023-03-31T10:56:59;4.22;;;0.90;;
48987;SDS011;34799;51.440;-2.534;2023-03-31T11:15:56;4.35;;;0.63;;
48987;SDS011;34799;51.440;-2.534;2023-03-31T11:42:04;9.32;;;1.10;;
48987;SDS011;34799;51.440;-2.534;2023-03-31T11:44:48;8.32;;;1.48;;
48987;SDS011;34799;51.440;-2.534;2023-03-31T11:47:22;7.88;;;1.02;;
48987;SDS011;34799;51.440;-2.534;2023-03-31T11:49:53;7.75;;;0.68;;
48987;SDS011;34799;51.440;-2.534;2023-03-31T11:52:32;9.82;;;1.05;;
48987;SDS011;34799;51.440;-2.534;2023-03-31T11:55:04;7.40;;;0.60;;
48987;SDS011;34799;51.440;-2.534;2023-03-31T11:57:57;5.32;;;0.77;;
48987;SDS011;34799;51.440;-2.534;2023-03-31T12:00:32;6.88;;;0.50;;
48987;SDS011;34799;51.440;-2.534;2023-03-31T12:06:02;4.63;;;1.00;;
48987;SDS011;34799;51.440;-2.534;2023-03-31T12:08:40;2.90;;;0.80;;
48987;SDS011;34799;51.440;-2.534;2023-03-31T12:11:15;5.72;;;1.15;;
48987;SDS011;34799;51.440;-2.534;2023-03-31T12:14:05;12.45;;;1.23;;
48987;SDS011;34799;51.440;-2.534;2023-03-31T12:17:08;9.18;;;1.67;;
48987;SDS011;34799;51.440;-2.534;2023-03-31T12:19:46;7.90;;;0.98;;
48987;SDS011;34799;51.440;-2.534;2023-03-31T12:22:33;9.18;;;2.05;;
48987;SDS011;34799;51.440;-2.534;2023-03-31T12:25:20;8.52;;;1.10;;
48987;SDS011;34799;51.440;-2.534;2023-03-31T12:27:49;7.72;;;0.88;;
48987;SDS011;34799;51.440;-2.534;2023-03-31T12:30:27;5.97;;;1.00;;
48987;SDS011;34799;51.440;-2.534;2023-03-31T12:33:01;4.90;;;0.73;;
48987;SDS011;34799;51.440;-2.534;2023-03-31T12:42:22;13.07;;;0.98;;
48987;SDS011;34799;51.440;-2.534;2023-03-31T12:44:28;7.43;;;1.10;;
48987;SDS011;34799;51.440;-2.534;2023-03-31T12:57:47;3.30;;;0.30;;
48987;SDS011;34799;51.440;-2.534;2023-03-31T13:00:17;4.18;;;0.60;;
48987;SDS011;34799;51.440;-2.534;2023-03-31T13:03:34;4.35;;;0.28;;
48987;SDS011;34799;51.440;-2.534;2023-03-31T13:06:01;6.15;;;0.30;;
48987;SDS011;34799;51.440;-2.534;2023-03-31T13:08:49;7.63;;;0.40;;
48987;SDS011;34799;51.440;-2.534;2023-03-31T13:16:50;9.32;;;1.23;;
48987;SDS011;34799;51.440;-2.534;2023-03-31T13:19:26;9.60;;;0.98;;
48987;SDS011;34799;51.440;-2.534;2023-03-31T13:22:26;9.80;;;0.98;;
48987;SDS011;34799;51.440;-2.534;2023-03-31T13:27:53;18.58;;;1.55;;
48987;SDS011;34799;51.440;-2.534;2023-03-31T13:33:10;8.15;;;2.10;;
48987;SDS011;34799;51.440;-2.534;2023-03-31T13:35:46;13.25;;;1.65;;
48987;SDS011;34799;51.440;-2.534;2023-03-31T13:51:40;8.43;;;0.82;;
48987;SDS011;34799;51.440;-2.534;2023-03-31T13:54:32;10.85;;;0.80;;
48987;SDS011;34799;51.440;-2.534;2023-03-31T14:00:02;8.63;;;1.05;;
48987;SDS011;34799;51.440;-2.534;2023-03-31T14:10:51;10.02;;;1.48;;
48987;SDS011;34799;51.440;-2.534;2023-03-31T14:13:19;9.90;;;1.48;;
48987;SDS011;34799;51.440;-2.534;2023-03-31T14:15:54;8.65;;;1.13;;
48987;SDS011;34799;51.440;-2.534;2023-03-31T14:18:28;14.07;;;1.20;;
48987;SDS011;34799;51.440;-2.534;2023-03-31T14:24:36;7.80;;;1.52;;
48987;SDS011;34799;51.440;-2.534;2023-03-31T14:26:51;10.52;;;1.00;;
48987;SDS011;34799;51.440;-2.534;2023-03-31T14:30:10;13.85;;;1.25;;
48987;SDS011;34799;51.440;-2.534;2023-03-31T14:32:42;16.40;;;2.42;;
48987;SDS011;34799;51.440;-2.534;2023-03-31T14:38:29;14.70;;;1.52;;
48987;SDS011;34799;51.440;-2.534;2023-03-31T14:40:57;9.38;;;1.00;;
48987;SDS011;34799;51.440;-2.534;2023-03-31T14:43:27;6.40;;;0.70;;
48987;SDS011;34799;51.440;-2.534;2023-03-31T14:48:28;8.38;;;1.50;;
48987;SDS011;34799;51.440;-2.534;2023-03-31T14:51:00;7.78;;;1.38;;
48987;SDS011;34799;51.440;-2.534;2023-03-31T14:53:28;12.35;;;0.70;;
48987;SDS011;34799;51.440;-2.534;2023-03-31T14:56:02;16.48;;;2.60;;
48987;SDS011;34799;51.440;-2.534;2023-03-31T14:58:38;17.95;;;1.75;;
48987;SDS011;34799;51.440;-2.534;2023-03-31T15:01:08;13.55;;;1.48;;
48987;SDS011;34799;51.440;-2.534;2023-03-31T15:03:43;14.50;;;1.67;;
48987;SDS011;34799;51.440;-2.534;2023-03-31T15:06:12;17.35;;;2.03;;
48987;SDS011;34799;51.440;-2.534;2023-03-31T15:08:39;12.25;;;1.10;;
48987;SDS011;34799;51.440;-2.534;2023-03-31T15:11:11;6.55;;;0.70;;
48987;SDS011;34799;51.440;-2.534;2023-03-31T15:13:46;9.45;;;1.38;;
48987;SDS011;34799;51.440;-2.534;2023-03-31T15:18:57;10.75;;;1.10;;
48987;SDS011;34799;51.440;-2.534;2023-03-31T15:21:27;5.72;;;0.77;;
48987;SDS011;34799;51.440;-2.534;2023-03-31T15:23:57;12.57;;;1.27;;
48987;SDS011;34799;51.440;-2.534;2023-03-31T15:26:29;11.30;;;1.08;;
48987;SDS011;34799;51.440;-2.534;2023-03-31T15:29:07;10.00;;;0.80;;
48987;SDS011;34799;51.440;-2.534;2023-03-31T15:31:42;10.68;;;1.10;;
48987;SDS011;34799;51.440;-2.534;2023-03-31T15:34:11;4.72;;;0.90;;
48987;SDS011;34799;51.440;-2.534;2023-03-31T15:36:59;11.57;;;0.93;;
48987;SDS011;34799;51.440;-2.534;2023-03-31T15:39:29;9.75;;;1.17;;
48987;SDS011;34799;51.440;-2.534;2023-03-31T15:41:59;6.75;;;0.55;;
48987;SDS011;34799;51.440;-2.534;2023-03-31T15:46:57;8.18;;;0.80;;
48987;SDS011;34799;51.440;-2.534;2023-03-31T15:49:26;9.52;;;0.50;;
48987;SDS011;34799;51.440;-2.534;2023-03-31T15:51:55;8.25;;;0.77;;
48987;SDS011;34799;51.440;-2.534;2023-03-31T15:54:30;8.20;;;1.25;;
48987;SDS011;34799;51.440;-2.534;2023-03-31T15:57:07;8.00;;;1.00;;
48987;SDS011;34799;51.440;-2.534;2023-03-31T15:59:47;11.63;;;2.53;;
48987;SDS011;34799;51.440;-2.534;2023-03-31T16:04:53;5.55;;;0.80;;
48987;SDS011;34799;51.440;-2.534;2023-03-31T16:07:24;11.93;;;1.35;;
48987;SDS011;34799;51.440;-2.534;2023-03-31T16:15:08;11.60;;;0.80;;
48987;SDS011;34799;51.440;-2.534;2023-03-31T16:17:40;9.98;;;1.48;;
48987;SDS011;34799;51.440;-2.534;2023-03-31T16:20:17;8.07;;;1.98;;
48987;SDS011;34799;51.440;-2.534;2023-03-31T16:22:52;14.07;;;1.02;;
48987;SDS011;34799;51.440;-2.534;2023-03-31T16:25:23;6.00;;;0.40;;
48987;SDS011;34799;51.440;-2.534;2023-03-31T16:27:57;7.53;;;1.55;;
48987;SDS011;34799;51.440;-2.534;2023-03-31T16:30:36;11.07;;;0.90;;
48987;SDS011;34799;51.440;-2.534;2023-03-31T16:33:06;6.07;;;1.10;;
48987;SDS011;34799;51.440;-2.534;2023-03-31T16:35:43;9.23;;;0.93;;
48987;SDS011;34799;51.440;-2.534;2023-03-31T16:38:16;7.22;;;0.93;;
48987;SDS011;34799;51.440;-2.534;2023-03-31T16:40:49;7.70;;;1.08;;
48987;SDS011;34799;51.440;-2.534;2023-03-31T16:43:20;6.35;;;0.60;;
48987;SDS011;34799;51.440;-2.534;2023-03-31T16:48:27;10.45;;;0.95;;
48987;SDS011;34799;51.440;-2.534;2023-03-31T16:50:56;9.52;;;1.10;;
48987;SDS011;34799;51.440;-2.534;2023-03-31T16:53:28;7.32;;;0.60;;
48987;SDS011;34799;51.440;-2.534;2023-03-31T16:55:58;8.05;;;1.35;;
48987;SDS011;34799;51.440;-2.534;2023-03-31T16:58:26;6.50;;;0.90;;
48987;SDS011;34799;51.440;-2.534;2023-03-31T17:00:58;10.68;;;0.93;;
48987;SDS011;34799;51.440;-2.534;2023-03-31T17:03:25;7.93;;;1.42;;
48987;SDS011;34799;51.440;-2.534;2023-03-31T17:05:54;10.10;;;0.80;;
48987;SDS011;34799;51.440;-2.534;2023-03-31T17:08:24;9.90;;;1.27;;
48987;SDS011;34799;51.440;-2.534;2023-03-31T17:10:54;6.22;;;0.93;;
48987;SDS011;34799;51.440;-2.534;2023-03-31T17:13:29;10.60;;;1.27;;
48987;SDS011;34799;51.440;-2.534;2023-03-31T17:15:57;7.75;;;0.95;;
48987;SDS011;34799;51.440;-2.534;2023-03-31T17:18:34;8.88;;;1.20;;
48987;SDS011;34799;51.440;-2.534;2023-03-31T17:21:06;8.27;;;1.23;;
48987;SDS011;34799;51.440;-2.534;2023-03-31T17:23:35;20.73;;;2.58;;
48987;SDS011;34799;51.440;-2.534;2023-03-31T17:26:04;5.95;;;0.63;;
48987;SDS011;34799;51.440;-2.534;2023-03-31T17:28:35;13.07;;;1.10;;
48987;SDS011;34799;51.440;-2.534;2023-03-31T17:31:09;9.20;;;2.25;;
48987;SDS011;34799;51.440;-2.534;2023-03-31T17:33:37;9.95;;;2.13;;
48987;SDS011;34799;51.440;-2.534;2023-03-31T17:36:04;10.82;;;1.85;;
48987;SDS011;34799;51.440;-2.534;2023-03-31T17:38:32;11.75;;;0.80;;
48987;SDS011;34799;51.440;-2.534;2023-03-31T17:41:03;8.95;;;1.05;;
48987;SDS011;34799;51.440;-2.534;2023-03-31T17:43:33;7.40;;;1.05;;
48987;SDS011;34799;51.440;-2.534;2023-03-31T17:46:01;8.18;;;1.20;;
48987;SDS011;34799;51.440;-2.534;2023-03-31T17:48:35;14.15;;;1.60;;
48987;SDS011;34799;51.440;-2.534;2023-03-31T17:51:04;12.35;;;1.88;;
48987;SDS011;34799;51.440;-2.534;2023-03-31T17:53:37;10.88;;;1.65;;
48987;SDS011;34799;51.440;-2.534;2023-03-31T17:56:05;20.27;;;3.42;;
48987;SDS011;34799;51.440;-2.534;2023-03-31T17:58:32;9.07;;;1.92;;
48987;SDS011;34799;51.440;-2.534;2023-03-31T18:00:59;11.43;;;2.60;;
48987;SDS011;34799;51.440;-2.534;2023-03-31T18:03:30;12.00;;;2.28;;
48987;SDS011;34799;51.440;-2.534;2023-03-31T18:06:07;15.82;;;2.00;;
48987;SDS011;34799;51.440;-2.534;2023-03-31T18:08:37;7.70;;;1.40;;
48987;SDS011;34799;51.440;-2.534;2023-03-31T18:11:06;7.57;;;1.70;;
48987;SDS011;34799;51.440;-2.534;2023-03-31T18:13:34;12.38;;;1.33;;
48987;SDS011;34799;51.440;-2.534;2023-03-31T18:16:02;8.48;;;1.50;;